sensor_id;sensor_type;location;lat;lon;timestamp;temperature;humidity
75786;DHT22;64402;44.708;37.644;2023-07-13T00:01:48;23.05;80.40
75786;DHT22;64402;44.708;37.644;2023-07-13T00:04:20;23.06;80.64
75786;DHT22;64402;44.708;37.644;2023-07-13T00:06:47;23.08;80.62
75786;DHT22;64402;44.708;37.644;2023-07-13T00:09:14;23.11;80.42
75786;DHT22;64402;44.708;37.644;2023-07-13T00:11:43;23.13;80.51
75786;DHT22;64402;44.708;37.644;2023-07-13T00:14:10;23.08;80.85
75786;DHT22;64402;44.708;37.644;2023-07-13T00:16:38;23.05;81.28
75786;DHT22;64402;44.708;37.644;2023-07-13T00:19:05;23.02;81.52
75786;DHT22;64402;44.708;37.644;2023-07-13T00:21:31;23.02;81.56
75786;DHT22;64402;44.708;37.644;2023-07-13T00:23:58;23.00;82.04
75786;DHT22;64402;44.708;37.644;2023-07-13T00:26:24;22.99;81.70
75786;DHT22;64402;44.708;37.644;2023-07-13T00:28:50;22.97;81.91
75786;DHT22;64402;44.708;37.644;2023-07-13T00:31:17;22.91;82.22
75786;DHT22;64402;44.708;37.644;2023-07-13T00:33:44;22.81;82.22
75786;DHT22;64402;44.708;37.644;2023-07-13T00:36:10;22.71;82.76
75786;DHT22;64402;44.708;37.644;2023-07-13T00:38:37;22.64;82.96
75786;DHT22;64402;44.708;37.644;2023-07-13T00:41:04;22.57;83.19
75786;DHT22;64402;44.708;37.644;2023-07-13T00:43:30;22.51;83.75
75786;DHT22;64402;44.708;37.644;2023-07-13T00:48:26;22.38;84.13
75786;DHT22;64402;44.708;37.644;2023-07-13T00:50:57;22.32;84.15
75786;DHT22;64402;44.708;37.644;2023-07-13T00:53:26;22.26;84.24
75786;DHT22;64402;44.708;37.644;2023-07-13T00:55:54;22.21;84.77
75786;DHT22;64402;44.708;37.644;2023-07-13T00:58:20;22.20;84.52
75786;DHT22;64402;44.708;37.644;2023-07-13T01:00:48;22.21;84.78
75786;DHT22;64402;44.708;37.644;2023-07-13T01:03:15;22.12;85.03
75786;DHT22;64402;44.708;37.644;2023-07-13T01:05:41;22.13;85.00
75786;DHT22;64402;44.708;37.644;2023-07-13T01:08:07;22.13;84.93
75786;DHT22;64402;44.708;37.644;2023-07-13T01:10:34;22.11;84.87
75786;DHT22;64402;44.708;37.644;2023-07-13T01:13:10;22.09;84.91
75786;DHT22;64402;44.708;37.644;2023-07-13T01:18:31;22.10;84.90
75786;DHT22;64402;44.708;37.644;2023-07-13T01:21:00;22.03;84.97
75786;DHT22;64402;44.708;37.644;2023-07-13T01:23:28;22.07;84.56
75786;DHT22;64402;44.708;37.644;2023-07-13T01:25:56;22.08;84.45
75786;DHT22;64402;44.708;37.644;2023-07-13T01:28:24;22.11;84.42
75786;DHT22;64402;44.708;37.644;2023-07-13T01:30:54;22.11;84.71
75786;DHT22;64402;44.708;37.644;2023-07-13T01:33:21;22.09;84.76
75786;DHT22;64402;44.708;37.644;2023-07-13T01:35:47;22.02;84.92
75786;DHT22;64402;44.708;37.644;2023-07-13T01:38:15;21.94;84.89
75786;DHT22;64402;44.708;37.644;2023-07-13T01:40:41;21.82;85.20
75786;DHT22;64402;44.708;37.644;2023-07-13T01:43:08;21.69;85.93
75786;DHT22;64402;44.708;37.644;2023-07-13T01:45:34;21.54;86.44
75786;DHT22;64402;44.708;37.644;2023-07-13T01:48:00;21.48;86.54
75786;DHT22;64402;44.708;37.644;2023-07-13T01:50:27;21.42;87.07
75786;DHT22;64402;44.708;37.644;2023-07-13T01:52:53;21.36;86.83
75786;DHT22;64402;44.708;37.644;2023-07-13T01:55:20;21.28;87.24
75786;DHT22;64402;44.708;37.644;2023-07-13T01:57:46;21.21;87.25
75786;DHT22;64402;44.708;37.644;2023-07-13T02:00:13;21.20;87.35
75786;DHT22;64402;44.708;37.644;2023-07-13T02:02:39;21.19;87.28
75786;DHT22;64402;44.708;37.644;2023-07-13T02:05:06;21.18;87.31
75786;DHT22;64402;44.708;37.644;2023-07-13T02:07:33;21.15;87.35
75786;DHT22;64402;44.708;37.644;2023-07-13T02:09:59;21.13;87.48
75786;DHT22;64402;44.708;37.644;2023-07-13T02:12:25;21.08;87.49
75786;DHT22;64402;44.708;37.644;2023-07-13T02:14:51;21.07;87.22
75786;DHT22;64402;44.708;37.644;2023-07-13T02:17:17;21.07;86.91
75786;DHT22;64402;44.708;37.644;2023-07-13T02:19:43;21.06;86.93
75786;DHT22;64402;44.708;37.644;2023-07-13T02:22:09;21.06;86.74
75786;DHT22;64402;44.708;37.644;2023-07-13T02:24:35;21.03;86.83
75786;DHT22;64402;44.708;37.644;2023-07-13T02:27:02;21.00;87.04
75786;DHT22;64402;44.708;37.644;2023-07-13T02:29:28;21.04;86.98
75786;DHT22;64402;44.708;37.644;2023-07-13T02:31:54;21.09;86.72
75786;DHT22;64402;44.708;37.644;2023-07-13T02:34:20;21.19;86.39
75786;DHT22;64402;44.708;37.644;2023-07-13T02:36:46;21.29;85.87
75786;DHT22;64402;44.708;37.644;2023-07-13T02:39:13;21.33;85.88
75786;DHT22;64402;44.708;37.644;2023-07-13T02:41:39;21.37;85.73
75786;DHT22;64402;44.708;37.644;2023-07-13T02:44:05;21.43;85.64
75786;DHT22;64402;44.708;37.644;2023-07-13T02:46:36;21.46;85.41
75786;DHT22;64402;44.708;37.644;2023-07-13T02:49:03;21.44;85.74
75786;DHT22;64402;44.708;37.644;2023-07-13T02:51:30;21.49;85.39
75786;DHT22;64402;44.708;37.644;2023-07-13T02:53:56;21.54;85.52
75786;DHT22;64402;44.708;37.644;2023-07-13T02:56:24;21.69;84.73
75786;DHT22;64402;44.708;37.644;2023-07-13T02:58:51;21.87;83.94
75786;DHT22;64402;44.708;37.644;2023-07-13T03:01:17;21.95;83.49
75786;DHT22;64402;44.708;37.644;2023-07-13T03:03:45;22.01;83.29
75786;DHT22;64402;44.708;37.644;2023-07-13T03:06:12;21.97;83.04
75786;DHT22;64402;44.708;37.644;2023-07-13T03:08:40;21.92;83.26
75786;DHT22;64402;44.708;37.644;2023-07-13T03:11:12;21.88;83.56
75786;DHT22;64402;44.708;37.644;2023-07-13T03:13:39;21.83;83.77
75786;DHT22;64402;44.708;37.644;2023-07-13T03:16:06;21.74;84.55
75786;DHT22;64402;44.708;37.644;2023-07-13T03:18:33;21.67;84.66
75786;DHT22;64402;44.708;37.644;2023-07-13T03:20:59;21.69;84.69
75786;DHT22;64402;44.708;37.644;2023-07-13T03:23:25;21.75;84.40
75786;DHT22;64402;44.708;37.644;2023-07-13T03:26:07;21.74;84.36
75786;DHT22;64402;44.708;37.644;2023-07-13T03:28:33;21.77;84.47
75786;DHT22;64402;44.708;37.644;2023-07-13T03:31:04;21.79;84.43
75786;DHT22;64402;44.708;37.644;2023-07-13T03:33:31;21.82;84.62
75786;DHT22;64402;44.708;37.644;2023-07-13T03:35:57;21.83;84.56
75786;DHT22;64402;44.708;37.644;2023-07-13T03:38:23;21.87;84.45
75786;DHT22;64402;44.708;37.644;2023-07-13T03:40:49;21.91;84.19
75786;DHT22;64402;44.708;37.644;2023-07-13T03:43:15;21.95;84.01
75786;DHT22;64402;44.708;37.644;2023-07-13T03:45:42;21.97;83.99
75786;DHT22;64402;44.708;37.644;2023-07-13T03:48:08;22.03;84.16
75786;DHT22;64402;44.708;37.644;2023-07-13T03:50:34;22.10;83.73
75786;DHT22;64402;44.708;37.644;2023-07-13T03:53:00;22.14;84.14
75786;DHT22;64402;44.708;37.644;2023-07-13T03:55:26;22.16;84.56
75786;DHT22;64402;44.708;37.644;2023-07-13T04:00:46;22.22;84.13
75786;DHT22;64402;44.708;37.644;2023-07-13T04:03:12;22.28;84.33
75786;DHT22;64402;44.708;37.644;2023-07-13T04:05:38;22.39;83.61
75786;DHT22;64402;44.708;37.644;2023-07-13T04:08:06;22.50;83.26
75786;DHT22;64402;44.708;37.644;2023-07-13T04:10:32;22.64;82.52
75786;DHT22;64402;44.708;37.644;2023-07-13T04:12:58;22.75;82.28
75786;DHT22;64402;44.708;37.644;2023-07-13T04:15:24;22.86;81.66
75786;DHT22;64402;44.708;37.644;2023-07-13T04:17:51;23.00;81.42
75786;DHT22;64402;44.708;37.644;2023-07-13T04:20:17;23.08;81.16
75786;DHT22;64402;44.708;37.644;2023-07-13T04:22:43;23.17;80.74
75786;DHT22;64402;44.708;37.644;2023-07-13T04:25:09;23.27;80.35
75786;DHT22;64402;44.708;37.644;2023-07-13T04:27:35;23.40;79.59
75786;DHT22;64402;44.708;37.644;2023-07-13T04:30:01;23.55;78.88
75786;DHT22;64402;44.708;37.644;2023-07-13T04:32:27;23.75;78.55
75786;DHT22;64402;44.708;37.644;2023-07-13T04:34:53;24.02;77.48
75786;DHT22;64402;44.708;37.644;2023-07-13T04:37:21;24.32;76.56
75786;DHT22;64402;44.708;37.644;2023-07-13T04:39:47;24.53;74.46
75786;DHT22;64402;44.708;37.644;2023-07-13T04:42:13;24.74;73.77
75786;DHT22;64402;44.708;37.644;2023-07-13T04:44:39;24.77;73.07
75786;DHT22;64402;44.708;37.644;2023-07-13T04:47:05;24.80;73.74
75786;DHT22;64402;44.708;37.644;2023-07-13T04:49:31;24.88;73.09
75786;DHT22;64402;44.708;37.644;2023-07-13T04:51:58;24.90;72.95
75786;DHT22;64402;44.708;37.644;2023-07-13T04:54:24;25.10;72.62
75786;DHT22;64402;44.708;37.644;2023-07-13T04:56:50;25.18;71.98
75786;DHT22;64402;44.708;37.644;2023-07-13T04:59:16;25.22;72.13
75786;DHT22;64402;44.708;37.644;2023-07-13T05:01:42;25.24;71.26
75786;DHT22;64402;44.708;37.644;2023-07-13T05:04:09;25.38;70.64
75786;DHT22;64402;44.708;37.644;2023-07-13T05:06:35;25.45;70.81
75786;DHT22;64402;44.708;37.644;2023-07-13T05:09:01;25.48;70.45
75786;DHT22;64402;44.708;37.644;2023-07-13T05:11:28;25.56;69.47
75786;DHT22;64402;44.708;37.644;2023-07-13T05:13:54;25.42;69.76
75786;DHT22;64402;44.708;37.644;2023-07-13T05:16:21;25.48;70.35
75786;DHT22;64402;44.708;37.644;2023-07-13T05:18:47;25.64;69.37
75786;DHT22;64402;44.708;37.644;2023-07-13T05:21:13;25.83;69.31
75786;DHT22;64402;44.708;37.644;2023-07-13T05:23:40;25.76;69.65
75786;DHT22;64402;44.708;37.644;2023-07-13T05:26:07;25.71;70.08
75786;DHT22;64402;44.708;37.644;2023-07-13T05:28:33;25.78;68.87
75786;DHT22;64402;44.708;37.644;2023-07-13T05:30:59;25.67;68.99
75786;DHT22;64402;44.708;37.644;2023-07-13T05:33:26;25.72;69.25
75786;DHT22;64402;44.708;37.644;2023-07-13T05:35:53;25.82;66.46
75786;DHT22;64402;44.708;37.644;2023-07-13T05:38:19;25.86;66.03
75786;DHT22;64402;44.708;37.644;2023-07-13T05:40:46;25.94;64.72
75786;DHT22;64402;44.708;37.644;2023-07-13T05:43:12;26.06;64.31
75786;DHT22;64402;44.708;37.644;2023-07-13T05:45:39;26.30;63.49
75786;DHT22;64402;44.708;37.644;2023-07-13T05:48:05;26.34;63.29
75786;DHT22;64402;44.708;37.644;2023-07-13T05:50:31;26.49;63.34
75786;DHT22;64402;44.708;37.644;2023-07-13T05:52:57;26.63;63.41
75786;DHT22;64402;44.708;37.644;2023-07-13T05:55:24;26.67;63.30
75786;DHT22;64402;44.708;37.644;2023-07-13T05:57:50;26.73;63.24
75786;DHT22;64402;44.708;37.644;2023-07-13T06:00:16;26.75;63.46
75786;DHT22;64402;44.708;37.644;2023-07-13T06:02:42;26.55;64.12
75786;DHT22;64402;44.708;37.644;2023-07-13T06:05:09;26.50;65.19
75786;DHT22;64402;44.708;37.644;2023-07-13T06:07:35;26.67;64.62
75786;DHT22;64402;44.708;37.644;2023-07-13T06:10:01;26.80;64.63
75786;DHT22;64402;44.708;37.644;2023-07-13T06:12:27;26.83;62.50
75786;DHT22;64402;44.708;37.644;2023-07-13T06:14:53;26.79;64.04
75786;DHT22;64402;44.708;37.644;2023-07-13T06:17:20;26.94;63.18
75786;DHT22;64402;44.708;37.644;2023-07-13T06:19:46;26.83;61.50
75786;DHT22;64402;44.708;37.644;2023-07-13T06:22:12;26.71;63.48
75786;DHT22;64402;44.708;37.644;2023-07-13T06:24:38;26.66;63.51
75786;DHT22;64402;44.708;37.644;2023-07-13T06:27:05;26.57;63.06
75786;DHT22;64402;44.708;37.644;2023-07-13T06:29:31;26.61;62.39
75786;DHT22;64402;44.708;37.644;2023-07-13T06:31:57;26.66;63.10
75786;DHT22;64402;44.708;37.644;2023-07-13T06:34:23;26.69;63.57
75786;DHT22;64402;44.708;37.644;2023-07-13T06:36:49;26.68;63.94
75786;DHT22;64402;44.708;37.644;2023-07-13T06:39:15;26.94;63.16
75786;DHT22;64402;44.708;37.644;2023-07-13T06:41:41;27.20;62.84
75786;DHT22;64402;44.708;37.644;2023-07-13T06:44:08;27.10;61.29
75786;DHT22;64402;44.708;37.644;2023-07-13T06:46:34;27.23;62.18
75786;DHT22;64402;44.708;37.644;2023-07-13T06:49:00;27.13;61.46
75786;DHT22;64402;44.708;37.644;2023-07-13T06:51:26;27.54;60.87
75786;DHT22;64402;44.708;37.644;2023-07-13T06:53:52;27.70;61.25
75786;DHT22;64402;44.708;37.644;2023-07-13T06:56:20;27.58;60.75
75786;DHT22;64402;44.708;37.644;2023-07-13T06:58:46;27.47;59.70
75786;DHT22;64402;44.708;37.644;2023-07-13T07:01:12;27.58;58.09
75786;DHT22;64402;44.708;37.644;2023-07-13T07:03:38;27.74;57.60
75786;DHT22;64402;44.708;37.644;2023-07-13T07:06:16;27.37;57.66
75786;DHT22;64402;44.708;37.644;2023-07-13T07:08:43;27.27;58.47
75786;DHT22;64402;44.708;37.644;2023-07-13T07:11:12;27.29;59.26
75786;DHT22;64402;44.708;37.644;2023-07-13T07:13:39;27.14;59.83
75786;DHT22;64402;44.708;37.644;2023-07-13T07:16:05;27.31;59.83
75786;DHT22;64402;44.708;37.644;2023-07-13T07:18:32;27.28;59.54
75786;DHT22;64402;44.708;37.644;2023-07-13T07:20:58;27.26;59.31
75786;DHT22;64402;44.708;37.644;2023-07-13T07:23:24;27.17;59.95
75786;DHT22;64402;44.708;37.644;2023-07-13T07:25:50;27.36;59.80
75786;DHT22;64402;44.708;37.644;2023-07-13T07:28:18;27.46;59.88
75786;DHT22;64402;44.708;37.644;2023-07-13T07:30:47;27.60;60.83
75786;DHT22;64402;44.708;37.644;2023-07-13T07:33:14;27.63;60.31
75786;DHT22;64402;44.708;37.644;2023-07-13T07:35:42;27.38;60.72
75786;DHT22;64402;44.708;37.644;2023-07-13T07:38:08;27.23;60.27
75786;DHT22;64402;44.708;37.644;2023-07-13T07:40:39;27.42;61.09
75786;DHT22;64402;44.708;37.644;2023-07-13T07:43:11;27.55;61.05
75786;DHT22;64402;44.708;37.644;2023-07-13T07:45:38;27.35;60.97
75786;DHT22;64402;44.708;37.644;2023-07-13T07:48:06;27.67;59.87
75786;DHT22;64402;44.708;37.644;2023-07-13T07:50:32;27.91;60.54
75786;DHT22;64402;44.708;37.644;2023-07-13T07:52:58;27.68;60.18
75786;DHT22;64402;44.708;37.644;2023-07-13T07:55:25;27.57;61.20
75786;DHT22;64402;44.708;37.644;2023-07-13T07:57:56;27.83;61.53
75786;DHT22;64402;44.708;37.644;2023-07-13T08:00:22;28.01;59.97
75786;DHT22;64402;44.708;37.644;2023-07-13T08:02:48;28.20;59.60
75786;DHT22;64402;44.708;37.644;2023-07-13T08:05:14;28.43;59.32
75786;DHT22;64402;44.708;37.644;2023-07-13T08:07:40;28.42;59.67
75786;DHT22;64402;44.708;37.644;2023-07-13T08:10:07;28.52;56.07
75786;DHT22;64402;44.708;37.644;2023-07-13T08:12:34;28.63;55.23
75786;DHT22;64402;44.708;37.644;2023-07-13T08:15:01;28.41;56.01
75786;DHT22;64402;44.708;37.644;2023-07-13T08:17:27;28.43;55.18
75786;DHT22;64402;44.708;37.644;2023-07-13T08:19:53;28.61;55.99
75786;DHT22;64402;44.708;37.644;2023-07-13T08:22:19;28.52;55.41
75786;DHT22;64402;44.708;37.644;2023-07-13T08:24:47;28.54;54.51
75786;DHT22;64402;44.708;37.644;2023-07-13T08:27:21;28.49;55.33
75786;DHT22;64402;44.708;37.644;2023-07-13T08:29:48;28.47;53.84
75786;DHT22;64402;44.708;37.644;2023-07-13T08:32:15;28.46;54.80
75786;DHT22;64402;44.708;37.644;2023-07-13T08:34:41;28.35;55.25
75786;DHT22;64402;44.708;37.644;2023-07-13T08:37:08;28.08;56.84
75786;DHT22;64402;44.708;37.644;2023-07-13T08:39:35;28.29;58.67
75786;DHT22;64402;44.708;37.644;2023-07-13T08:42:06;28.30;57.84
75786;DHT22;64402;44.708;37.644;2023-07-13T08:47:22;28.74;55.70
75786;DHT22;64402;44.708;37.644;2023-07-13T08:49:48;29.17;55.39
75786;DHT22;64402;44.708;37.644;2023-07-13T08:52:40;29.42;53.93
75786;DHT22;64402;44.708;37.644;2023-07-13T08:55:22;29.50;53.75
75786;DHT22;64402;44.708;37.644;2023-07-13T08:58:14;29.33;54.17
75786;DHT22;64402;44.708;37.644;2023-07-13T09:00:48;29.50;54.71
75786;DHT22;64402;44.708;37.644;2023-07-13T09:03:30;29.70;54.33
75786;DHT22;64402;44.708;37.644;2023-07-13T09:05:59;29.54;53.83
75786;DHT22;64402;44.708;37.644;2023-07-13T09:16:25;30.06;54.39
75786;DHT22;64402;44.708;37.644;2023-07-13T09:18:54;30.61;53.42
75786;DHT22;64402;44.708;37.644;2023-07-13T09:21:25;30.79;52.75
75786;DHT22;64402;44.708;37.644;2023-07-13T09:23:54;31.71;50.79
75786;DHT22;64402;44.708;37.644;2023-07-13T09:26:28;32.62;49.07
75786;DHT22;64402;44.708;37.644;2023-07-13T09:29:03;34.57;44.83
75786;DHT22;64402;44.708;37.644;2023-07-13T09:31:34;35.98;39.17
75786;DHT22;64402;44.708;37.644;2023-07-13T09:34:04;36.00;39.79
75786;DHT22;64402;44.708;37.644;2023-07-13T09:36:33;36.46;35.47
75786;DHT22;64402;44.708;37.644;2023-07-13T09:41:47;36.11;36.17
75786;DHT22;64402;44.708;37.644;2023-07-13T09:44:18;36.78;36.99
75786;DHT22;64402;44.708;37.644;2023-07-13T09:46:55;37.30;31.69
75786;DHT22;64402;44.708;37.644;2023-07-13T09:49:29;37.92;34.39
75786;DHT22;64402;44.708;37.644;2023-07-13T09:52:07;37.97;33.15
75786;DHT22;64402;44.708;37.644;2023-07-13T09:54:36;37.88;33.53
75786;DHT22;64402;44.708;37.644;2023-07-13T09:57:11;38.45;31.73
75786;DHT22;64402;44.708;37.644;2023-07-13T09:59:44;39.41;30.00
75786;DHT22;64402;44.708;37.644;2023-07-13T10:02:33;39.66;28.44
75786;DHT22;64402;44.708;37.644;2023-07-13T10:05:02;39.73;29.14
75786;DHT22;64402;44.708;37.644;2023-07-13T10:07:31;40.19;27.59
75786;DHT22;64402;44.708;37.644;2023-07-13T10:10:00;40.31;30.31
75786;DHT22;64402;44.708;37.644;2023-07-13T10:12:30;39.49;26.83
75786;DHT22;64402;44.708;37.644;2023-07-13T10:15:02;39.92;28.29
75786;DHT22;64402;44.708;37.644;2023-07-13T10:17:31;39.88;28.04
75786;DHT22;64402;44.708;37.644;2023-07-13T10:20:07;40.09;27.41
75786;DHT22;64402;44.708;37.644;2023-07-13T10:23:02;39.26;30.37
75786;DHT22;64402;44.708;37.644;2023-07-13T10:25:33;38.78;31.79
75786;DHT22;64402;44.708;37.644;2023-07-13T10:28:51;37.64;32.70
75786;DHT22;64402;44.708;37.644;2023-07-13T10:30:52;37.99;31.06
75786;DHT22;64402;44.708;37.644;2023-07-13T10:33:20;37.95;30.69
75786;DHT22;64402;44.708;37.644;2023-07-13T10:35:48;38.16;32.51
75786;DHT22;64402;44.708;37.644;2023-07-13T10:38:20;38.88;28.84
75786;DHT22;64402;44.708;37.644;2023-07-13T10:43:27;39.43;27.57
75786;DHT22;64402;44.708;37.644;2023-07-13T10:45:54;40.09;28.14
75786;DHT22;64402;44.708;37.644;2023-07-13T10:48:23;39.47;26.42
75786;DHT22;64402;44.708;37.644;2023-07-13T10:50:52;39.34;26.85
75786;DHT22;64402;44.708;37.644;2023-07-13T10:53:35;38.24;28.93
75786;DHT22;64402;44.708;37.644;2023-07-13T10:56:04;39.36;28.82
75786;DHT22;64402;44.708;37.644;2023-07-13T10:58:41;39.77;27.40
75786;DHT22;64402;44.708;37.644;2023-07-13T11:09:18;37.80;30.84
75786;DHT22;64402;44.708;37.644;2023-07-13T11:11:45;38.62;30.90
75786;DHT22;64402;44.708;37.644;2023-07-13T11:14:34;39.06;29.46
75786;DHT22;64402;44.708;37.644;2023-07-13T11:23:07;41.62;24.85
75786;DHT22;64402;44.708;37.644;2023-07-13T11:25:35;41.18;25.47
75786;DHT22;64402;44.708;37.644;2023-07-13T11:28:15;41.04;26.00
75786;DHT22;64402;44.708;37.644;2023-07-13T11:30:59;38.07;30.04
75786;DHT22;64402;44.708;37.644;2023-07-13T11:33:49;35.63;34.38
75786;DHT22;64402;44.708;37.644;2023-07-13T11:36:17;33.73;38.75
75786;DHT22;64402;44.708;37.644;2023-07-13T11:41:32;33.30;40.29
75786;DHT22;64402;44.708;37.644;2023-07-13T11:46:38;37.86;32.54
75786;DHT22;64402;44.708;37.644;2023-07-13T11:49:05;38.65;31.90
75786;DHT22;64402;44.708;37.644;2023-07-13T11:51:36;39.44;29.41
75786;DHT22;64402;44.708;37.644;2023-07-13T11:54:20;39.32;28.26
75786;DHT22;64402;44.708;37.644;2023-07-13T11:56:48;38.85;30.04
75786;DHT22;64402;44.708;37.644;2023-07-13T11:59:16;39.21;30.03
75786;DHT22;64402;44.708;37.644;2023-07-13T12:01:52;39.88;28.19
75786;DHT22;64402;44.708;37.644;2023-07-13T12:04:28;39.87;28.92
75786;DHT22;64402;44.708;37.644;2023-07-13T12:07:03;39.43;29.52
75786;DHT22;64402;44.708;37.644;2023-07-13T12:09:29;38.94;30.13
75786;DHT22;64402;44.708;37.644;2023-07-13T12:11:57;39.27;28.89
75786;DHT22;64402;44.708;37.644;2023-07-13T12:14:26;39.97;27.61
75786;DHT22;64402;44.708;37.644;2023-07-13T12:16:53;39.23;28.77
75786;DHT22;64402;44.708;37.644;2023-07-13T12:19:22;39.43;29.34
75786;DHT22;64402;44.708;37.644;2023-07-13T12:21:52;41.34;26.88
75786;DHT22;64402;44.708;37.644;2023-07-13T12:24:19;42.01;24.89
75786;DHT22;64402;44.708;37.644;2023-07-13T12:27:02;41.34;25.47
75786;DHT22;64402;44.708;37.644;2023-07-13T12:29:28;40.65;26.65
75786;DHT22;64402;44.708;37.644;2023-07-13T12:31:55;40.52;26.36
75786;DHT22;64402;44.708;37.644;2023-07-13T12:34:23;41.48;25.59
75786;DHT22;64402;44.708;37.644;2023-07-13T12:36:56;40.81;26.10
75786;DHT22;64402;44.708;37.644;2023-07-13T12:39:33;40.95;26.23
75786;DHT22;64402;44.708;37.644;2023-07-13T12:44:46;40.21;27.20
75786;DHT22;64402;44.708;37.644;2023-07-13T12:47:14;39.30;29.29
75786;DHT22;64402;44.708;37.644;2023-07-13T12:49:44;39.69;28.17
75786;DHT22;64402;44.708;37.644;2023-07-13T12:52:16;39.22;28.75
75786;DHT22;64402;44.708;37.644;2023-07-13T12:54:53;40.12;27.78
75786;DHT22;64402;44.708;37.644;2023-07-13T12:57:23;40.27;26.90
75786;DHT22;64402;44.708;37.644;2023-07-13T12:59:51;40.23;27.21
75786;DHT22;64402;44.708;37.644;2023-07-13T13:02:28;40.45;27.45
75786;DHT22;64402;44.708;37.644;2023-07-13T13:04:56;40.99;25.91
75786;DHT22;64402;44.708;37.644;2023-07-13T13:07:23;40.60;27.31
75786;DHT22;64402;44.708;37.644;2023-07-13T13:09:49;39.04;29.89
75786;DHT22;64402;44.708;37.644;2023-07-13T13:12:15;37.65;32.80
75786;DHT22;64402;44.708;37.644;2023-07-13T13:14:43;38.14;31.57
75786;DHT22;64402;44.708;37.644;2023-07-13T13:17:21;39.12;29.55
75786;DHT22;64402;44.708;37.644;2023-07-13T13:19:50;38.64;31.03
75786;DHT22;64402;44.708;37.644;2023-07-13T13:22:18;38.49;30.65
75786;DHT22;64402;44.708;37.644;2023-07-13T13:24:45;38.28;30.93
75786;DHT22;64402;44.708;37.644;2023-07-13T13:27:18;38.25;31.14
75786;DHT22;64402;44.708;37.644;2023-07-13T13:29:46;35.84;36.14
75786;DHT22;64402;44.708;37.644;2023-07-13T13:32:14;37.43;33.44
75786;DHT22;64402;44.708;37.644;2023-07-13T13:34:41;38.33;31.56
75786;DHT22;64402;44.708;37.644;2023-07-13T13:37:28;40.26;28.34
75786;DHT22;64402;44.708;37.644;2023-07-13T13:39:54;40.53;28.13
75786;DHT22;64402;44.708;37.644;2023-07-13T13:42:21;39.36;30.06
75786;DHT22;64402;44.708;37.644;2023-07-13T13:44:50;39.87;29.28
75786;DHT22;64402;44.708;37.644;2023-07-13T13:49:47;39.85;28.81
75786;DHT22;64402;44.708;37.644;2023-07-13T13:52:13;39.36;29.67
75786;DHT22;64402;44.708;37.644;2023-07-13T13:54:39;39.78;28.84
75786;DHT22;64402;44.708;37.644;2023-07-13T13:57:06;40.19;28.50
75786;DHT22;64402;44.708;37.644;2023-07-13T13:59:32;39.72;29.16
75786;DHT22;64402;44.708;37.644;2023-07-13T14:02:25;39.95;28.23
75786;DHT22;64402;44.708;37.644;2023-07-13T14:04:55;39.47;28.75
75786;DHT22;64402;44.708;37.644;2023-07-13T14:07:22;39.19;29.50
75786;DHT22;64402;44.708;37.644;2023-07-13T14:09:49;38.84;30.09
75786;DHT22;64402;44.708;37.644;2023-07-13T14:12:15;38.69;30.59
75786;DHT22;64402;44.708;37.644;2023-07-13T14:14:41;38.53;30.78
75786;DHT22;64402;44.708;37.644;2023-07-13T14:17:27;39.41;28.49
75786;DHT22;64402;44.708;37.644;2023-07-13T14:19:54;39.03;29.82
75786;DHT22;64402;44.708;37.644;2023-07-13T14:22:24;38.96;29.54
75786;DHT22;64402;44.708;37.644;2023-07-13T14:24:54;38.15;31.21
75786;DHT22;64402;44.708;37.644;2023-07-13T14:27:21;37.44;32.75
75786;DHT22;64402;44.708;37.644;2023-07-13T14:29:49;37.74;32.09
75786;DHT22;64402;44.708;37.644;2023-07-13T14:32:15;38.29;30.92
75786;DHT22;64402;44.708;37.644;2023-07-13T14:34:42;38.45;30.16
75786;DHT22;64402;44.708;37.644;2023-07-13T14:37:23;38.67;29.77
75786;DHT22;64402;44.708;37.644;2023-07-13T14:39:51;38.20;30.63
75786;DHT22;64402;44.708;37.644;2023-07-13T14:42:17;38.68;29.48
75786;DHT22;64402;44.708;37.644;2023-07-13T14:44:44;38.15;30.74
75786;DHT22;64402;44.708;37.644;2023-07-13T14:47:10;38.95;29.37
75786;DHT22;64402;44.708;37.644;2023-07-13T14:49:42;38.80;29.36
75786;DHT22;64402;44.708;37.644;2023-07-13T14:52:20;38.90;29.41
75786;DHT22;64402;44.708;37.644;2023-07-13T14:54:47;38.43;29.81
75786;DHT22;64402;44.708;37.644;2023-07-13T14:57:14;38.86;29.61
75786;DHT22;64402;44.708;37.644;2023-07-13T14:59:41;38.59;30.24
75786;DHT22;64402;44.708;37.644;2023-07-13T15:04:58;36.89;33.43
75786;DHT22;64402;44.708;37.644;2023-07-13T15:07:25;37.25;32.64
75786;DHT22;64402;44.708;37.644;2023-07-13T15:09:51;37.50;32.52
75786;DHT22;64402;44.708;37.644;2023-07-13T15:12:18;37.66;32.05
75786;DHT22;64402;44.708;37.644;2023-07-13T15:14:44;36.87;33.52
75786;DHT22;64402;44.708;37.644;2023-07-13T15:17:28;36.76;33.83
75786;DHT22;64402;44.708;37.644;2023-07-13T15:19:56;36.32;34.66
75786;DHT22;64402;44.708;37.644;2023-07-13T15:22:22;35.71;36.23
75786;DHT22;64402;44.708;37.644;2023-07-13T15:24:49;35.48;36.71
75786;DHT22;64402;44.708;37.644;2023-07-13T15:27:15;35.42;36.89
75786;DHT22;64402;44.708;37.644;2023-07-13T15:29:41;34.48;39.01
75786;DHT22;64402;44.708;37.644;2023-07-13T15:32:14;33.16;42.70
75786;DHT22;64402;44.708;37.644;2023-07-13T15:34:40;32.66;43.76
75786;DHT22;64402;44.708;37.644;2023-07-13T15:37:16;32.32;44.79
75786;DHT22;64402;44.708;37.644;2023-07-13T15:39:45;33.13;42.68
75786;DHT22;64402;44.708;37.644;2023-07-13T15:42:16;33.03;43.02
75786;DHT22;64402;44.708;37.644;2023-07-13T15:44:44;33.58;41.52
75786;DHT22;64402;44.708;37.644;2023-07-13T15:47:12;33.56;41.55
75786;DHT22;64402;44.708;37.644;2023-07-13T15:49:39;33.64;41.35
75786;DHT22;64402;44.708;37.644;2023-07-13T15:52:08;33.63;41.27
75786;DHT22;64402;44.708;37.644;2023-07-13T15:54:36;34.01;40.54
75786;DHT22;64402;44.708;37.644;2023-07-13T15:57:04;33.96;40.77
75786;DHT22;64402;44.708;37.644;2023-07-13T15:59:31;33.57;41.53
75786;DHT22;64402;44.708;37.644;2023-07-13T16:01:57;33.45;41.56
75786;DHT22;64402;44.708;37.644;2023-07-13T16:04:23;31.90;45.40
75786;DHT22;64402;44.708;37.644;2023-07-13T16:06:49;31.05;47.82
75786;DHT22;64402;44.708;37.644;2023-07-13T16:09:19;31.13;48.09
75786;DHT22;64402;44.708;37.644;2023-07-13T16:11:48;31.63;46.60
75786;DHT22;64402;44.708;37.644;2023-07-13T16:14:15;31.61;46.40
75786;DHT22;64402;44.708;37.644;2023-07-13T16:16:42;31.46;46.97